Time;durP1;ratioP1;P1;durP2;ratioP2;P2;SDS_P1;SDS_P2;PMS_P1;PMS_P2;Temp;Humidity;BMP_temperature;BMP_pressure;BME280_temperature;BME280_humidity;BME280_pressure;Samples;Min_cycle;Max_cycle;Signal;HPM_P1;HPM_P2
2023/06/20 00:01:47;;;;;;;0.30;0.30;;;18.90;99.90;;;;;;5117240;28;20042;-70
2023/06/20 00:04:12;;;;;;;0.30;0.30;;;18.80;99.90;;;;;;5117464;28;20472;-69
2023/06/20 00:06:38;;;;;;;0.30;0.30;;;18.90;99.90;;;;;;5115884;28;20047;-70
2023/06/20 00:09:04;;;;;;;0.30;0.30;;;18.60;99.90;;;;;;5117084;28;20132;-70
2023/06/20 00:11:29;;;;;;;1.90;0.50;;;18.90;99.90;;;;;;5117499;28;20042;-70
2023/06/20 00:13:55;;;;;;;0.30;0.30;;;18.80;99.90;;;;;;5117013;28;20046;-70
2023/06/20 00:16:20;;;;;;;0.80;0.80;;;18.90;99.90;;;;;;5117000;28;20445;-69
2023/06/20 00:18:53;;;;;;;0.40;0.40;;;18.80;99.90;;;;;;5116989;28;20040;-69
2023/06/20 00:21:25;;;;;;;0.45;0.45;;;18.80;99.90;;;;;;5117079;28;20042;-70
2023/06/20 00:23:52;;;;;;;0.30;0.30;;;18.80;99.90;;;;;;5116822;28;20455;-70
2023/06/20 00:26:18;;;;;;;;;;;18.80;99.90;;;;;;5117643;28;20039;-70
2023/06/20 00:28:44;;;;;;;0.57;0.57;;;18.80;99.90;;;;;;5116782;28;20408;-69
2023/06/20 00:31:09;;;;;;;0.80;0.80;;;18.80;99.90;;;;;;5116720;28;20468;-69
2023/06/20 00:33:36;;;;;;;1.80;0.60;;;18.90;99.90;;;;;;5116837;28;20032;-70
2023/06/20 00:36:02;;;;;;;0.50;0.50;;;18.90;99.90;;;;;;5116520;28;20035;-70
2023/06/20 00:38:29;;;;;;;0.40;0.40;;;18.80;99.90;;;;;;5116631;28;20379;-69
2023/06/20 00:40:56;;;;;;;0.30;0.30;;;18.80;99.90;;;;;;5116536;28;20047;-70
2023/06/20 00:43:21;;;;;;;;;;;18.80;99.90;;;;;;5115615;28;20063;-70
2023/06/20 00:45:47;;;;;;;0.40;0.40;;;18.70;99.90;;;;;;5116434;28;19951;-69
2023/06/20 00:48:12;;;;;;;0.97;0.80;;;18.80;99.90;;;;;;5116318;28;20123;-70
2023/06/20 00:50:38;;;;;;;0.40;0.40;;;18.70;99.90;;;;;;5116359;28;20047;-70
2023/06/20 00:53:05;;;;;;;0.50;0.50;;;18.80;99.90;;;;;;5116294;28;20043;-69
2023/06/20 00:55:33;;;;;;;0.30;0.30;;;18.80;99.90;;;;;;5116213;27;20088;-69
2023/06/20 00:58:00;;;;;;;0.30;0.30;;;18.80;99.90;;;;;;5116524;28;20348;-70
2023/06/20 01:00:27;;;;;;;0.50;0.50;;;18.80;99.90;;;;;;5116161;28;20107;-70
2023/06/20 01:02:57;;;;;;;0.30;0.30;;;18.80;99.90;;;;;;5116090;28;20041;-70
2023/06/20 01:05:27;;;;;;;0.73;0.73;;;18.70;99.90;;;;;;5114686;28;20144;-70
2023/06/20 01:08:12;;;;;;;0.30;0.30;;;18.70;99.90;;;;;;5115986;28;20075;-70
2023/06/20 01:10:56;;;;;;;0.40;0.40;;;18.80;99.90;;;;;;5115346;28;20142;-70
2023/06/20 01:13:37;;;;;;;0.40;0.40;;;18.80;99.90;;;;;;5115957;28;20035;-69
2023/06/20 01:16:18;;;;;;;1.20;1.10;;;18.70;99.90;;;;;;5116339;28;20173;-70
2023/06/20 01:18:55;;;;;;;0.30;0.30;;;18.80;99.90;;;;;;5116160;28;20052;-71
2023/06/20 01:21:37;;;;;;;0.50;0.50;;;18.70;99.90;;;;;;5116015;28;20046;-70
2023/06/20 01:24:07;;;;;;;0.70;0.70;;;18.70;99.90;;;;;;5115724;28;20055;-69
2023/06/20 01:26:49;;;;;;;0.50;0.50;;;18.70;99.90;;;;;;5115469;28;20044;-70
2023/06/20 01:29:36;;;;;;;0.40;0.40;;;18.60;99.90;;;;;;5116013;28;20035;-71
2023/06/20 01:32:06;;;;;;;1.00;1.00;;;18.60;99.90;;;;;;5115730;28;20122;-70
2023/06/20 01:34:37;;;;;;;0.50;0.50;;;18.60;99.90;;;;;;5115446;28;20188;-69
2023/06/20 01:37:06;;;;;;;0.30;0.30;;;18.60;99.90;;;;;;5115574;28;20043;-71
2023/06/20 01:39:41;;;;;;;0.40;0.40;;;18.60;99.90;;;;;;5115132;28;20425;-70
2023/06/20 01:42:09;;;;;;;1.40;1.30;;;18.60;99.90;;;;;;5097209;28;20464;-70
2023/06/20 01:44:35;;;;;;;0.35;0.35;;;18.60;99.90;;;;;;5115048;28;20046;-70
2023/06/20 01:47:05;;;;;;;0.60;0.60;;;18.50;99.90;;;;;;5115338;27;20047;-70
2023/06/20 01:49:32;;;;;;;0.50;0.50;;;18.50;99.90;;;;;;5115158;28;20387;-70
2023/06/20 01:52:00;;;;;;;0.47;0.47;;;18.50;99.90;;;;;;5115334;28;20128;-71
2023/06/20 01:54:29;;;;;;;0.30;0.30;;;18.50;99.90;;;;;;5115148;28;20042;-70
2023/06/20 01:56:59;;;;;;;0.40;0.40;;;18.50;99.90;;;;;;5114647;28;20570;-70
2023/06/20 01:59:26;;;;;;;0.40;0.40;;;18.50;99.90;;;;;;5114954;28;20122;-70
2023/06/20 02:01:53;;;;;;;0.40;0.40;;;18.50;99.90;;;;;;5114383;28;20055;-70
2023/06/20 02:04:20;;;;;;;0.40;0.40;;;18.50;99.90;;;;;;5114720;28;20050;-69
2023/06/20 02:06:46;;;;;;;;;;;18.50;99.90;;;;;;5115847;28;20118;-70
2023/06/20 02:09:13;;;;;;;1.55;1.10;;;18.40;99.90;;;;;;5114594;28;20378;-70
2023/06/20 02:11:39;;;;;;;0.30;0.30;;;18.40;99.90;;;;;;5114773;28;20051;-70
2023/06/20 02:14:07;;;;;;;0.40;0.40;;;18.40;99.90;;;;;;5114890;28;20032;-70
2023/06/20 02:16:36;;;;;;;0.52;0.52;;;18.40;99.90;;;;;;5114705;28;20040;-70
2023/06/20 02:19:03;;;;;;;0.50;0.50;;;18.40;99.90;;;;;;5114670;28;20040;-70
2023/06/20 02:21:31;;;;;;;;;;;18.40;99.90;;;;;;5115064;28;20048;-70
2023/06/20 02:23:57;;;;;;;0.30;0.30;;;18.40;99.90;;;;;;5114812;28;19922;-70
2023/06/20 02:26:28;;;;;;;0.43;0.43;;;18.40;99.90;;;;;;5114723;28;20035;-69
2023/06/20 02:28:57;;;;;;;0.38;0.38;;;18.40;99.90;;;;;;5114587;28;20039;-70
2023/06/20 02:31:24;;;;;;;0.40;0.40;;;18.40;99.90;;;;;;5114915;28;20151;-70
2023/06/20 02:33:56;;;;;;;0.50;0.50;;;18.30;99.90;;;;;;5114201;28;20463;-70
2023/06/20 02:36:27;;;;;;;0.40;0.40;;;18.30;99.90;;;;;;5114415;28;20036;-70
2023/06/20 02:38:55;;;;;;;0.60;0.60;;;18.40;99.90;;;;;;5114654;28;20119;-70
2023/06/20 02:41:21;;;;;;;0.40;0.40;;;18.40;99.90;;;;;;5114278;28;20058;-70
2023/06/20 02:43:47;;;;;;;1.00;0.65;;;18.30;99.90;;;;;;5114172;28;20130;-70
2023/06/20 02:46:33;;;;;;;0.50;0.50;;;18.40;99.90;;;;;;5114303;28;20396;-69
2023/06/20 02:49:11;;;;;;;0.50;0.50;;;18.40;99.90;;;;;;5114290;28;20375;-70
2023/06/20 02:51:47;;;;;;;0.40;0.40;;;18.30;99.90;;;;;;5113137;28;20039;-70
2023/06/20 02:54:47;;;;;;;0.60;0.60;;;18.30;99.90;;;;;;5114180;28;20086;-71
2023/06/20 02:57:18;;;;;;;0.30;0.30;;;18.30;99.90;;;;;;5114532;28;20093;-70
2023/06/20 02:59:47;;;;;;;0.30;0.30;;;18.30;99.90;;;;;;5114445;28;20119;-71
2023/06/20 03:02:15;;;;;;;0.75;0.75;;;18.30;99.90;;;;;;5113837;28;20039;-70
2023/06/20 03:04:44;;;;;;;0.40;0.40;;;18.30;99.90;;;;;;5113631;28;20131;-70
2023/06/20 03:07:10;;;;;;;0.40;0.40;;;18.30;99.90;;;;;;5113339;28;20040;-70
2023/06/20 03:09:36;;;;;;;0.40;0.40;;;18.40;99.90;;;;;;5113959;28;20040;-70
2023/06/20 03:12:02;;;;;;;0.40;0.40;;;18.40;99.90;;;;;;5114042;28;20365;-70
2023/06/20 03:14:31;;;;;;;0.73;0.73;;;18.30;99.90;;;;;;5117878;28;20088;-69
2023/06/20 03:16:56;;;;;;;0.60;0.60;;;18.30;99.90;;;;;;5117768;28;20127;-70
2023/06/20 03:19:22;;;;;;;1.33;1.23;;;18.30;99.90;;;;;;5118040;28;20075;-70
2023/06/20 03:21:48;;;;;;;0.73;0.73;;;18.30;99.90;;;;;;5117979;28;20031;-70
2023/06/20 03:24:13;;;;;;;0.53;0.53;;;18.30;99.90;;;;;;5117952;28;20092;-69
2023/06/20 03:26:39;;;;;;;0.40;0.40;;;18.30;99.90;;;;;;5118030;28;20083;-70
2023/06/20 03:29:05;;;;;;;0.47;0.47;;;18.30;99.90;;;;;;5117936;27;20122;-70
2023/06/20 03:31:31;;;;;;;0.40;0.40;;;18.30;99.90;;;;;;5117979;28;20036;-70
2023/06/20 03:33:56;;;;;;;0.50;0.50;;;18.30;99.90;;;;;;5117770;28;20043;-70
2023/06/20 03:36:23;;;;;;;0.50;0.50;;;18.30;99.90;;;;;;5117796;28;20126;-69
2023/06/20 03:38:48;;;;;;;0.52;0.52;;;18.30;99.90;;;;;;5117960;27;20047;-70
2023/06/20 03:41:14;;;;;;;0.40;0.40;;;18.30;99.90;;;;;;5117708;28;20039;-71
2023/06/20 03:43:40;;;;;;;0.40;0.40;;;18.40;99.90;;;;;;5117235;28;20084;-70
2023/06/20 03:46:05;;;;;;;0.70;0.70;;;18.30;99.90;;;;;;5117694;28;20075;-70
2023/06/20 03:48:31;;;;;;;0.40;0.40;;;18.30;99.90;;;;;;5117530;28;20031;-69
2023/06/20 03:50:56;;;;;;;0.40;0.40;;;18.30;99.90;;;;;;5117607;28;20482;-70
2023/06/20 03:53:22;;;;;;;0.40;0.40;;;18.30;99.90;;;;;;5117530;28;20035;-70
2023/06/20 03:55:48;;;;;;;0.50;0.50;;;18.40;99.90;;;;;;5117468;28;20156;-70
2023/06/20 03:58:13;;;;;;;0.40;0.40;;;18.40;99.90;;;;;;5117517;28;20043;-70
2023/06/20 04:00:39;;;;;;;0.47;0.47;;;18.40;99.90;;;;;;5117424;28;20035;-70
2023/06/20 04:03:05;;;;;;;0.60;0.60;;;18.40;99.90;;;;;;5117285;28;20028;-70
2023/06/20 04:05:30;;;;;;;0.40;0.40;;;18.50;99.90;;;;;;5117532;28;20112;-70
2023/06/20 04:07:56;;;;;;;0.73;0.73;;;18.50;99.90;;;;;;5117626;28;20433;-70
2023/06/20 04:10:22;;;;;;;0.50;0.50;;;18.50;99.90;;;;;;5117463;28;20039;-70
2023/06/20 04:12:47;;;;;;;0.40;0.40;;;18.60;99.90;;;;;;5117350;28;20107;-70
2023/06/20 04:15:13;;;;;;;0.40;0.40;;;18.60;99.90;;;;;;5117221;28;20395;-70
2023/06/20 04:17:42;;;;;;;0.40;0.40;;;18.60;99.90;;;;;;5117073;28;20047;-70
2023/06/20 04:20:14;;;;;;;0.30;0.30;;;18.70;99.90;;;;;;5117426;28;20361;-70
2023/06/20 04:22:46;;;;;;;0.40;0.40;;;18.70;99.90;;;;;;5116942;28;20032;-70
2023/06/20 04:25:13;;;;;;;0.77;0.77;;;18.70;99.90;;;;;;5116278;28;20429;-71
2023/06/20 04:27:39;;;;;;;2.70;1.05;;;18.70;99.90;;;;;;5116570;28;20394;-70
2023/06/20 04:30:05;;;;;;;1.20;0.90;;;18.70;99.90;;;;;;5116774;28;20069;-70
2023/06/20 04:32:32;;;;;;;0.40;0.40;;;18.70;99.90;;;;;;5116603;28;20047;-70
2023/06/20 04:34:57;;;;;;;0.40;0.40;;;18.80;99.90;;;;;;5116439;28;20078;-70
2023/06/20 04:37:23;;;;;;;1.30;1.17;;;18.70;99.90;;;;;;5116682;28;20075;-70
2023/06/20 04:39:49;;;;;;;0.40;0.40;;;18.80;99.90;;;;;;5116586;28;20031;-70
2023/06/20 04:42:14;;;;;;;0.83;0.83;;;18.80;99.90;;;;;;5116742;28;20101;-70
2023/06/20 04:44:40;;;;;;;0.40;0.40;;;18.80;99.90;;;;;;5115373;28;20398;-70
2023/06/20 04:47:06;;;;;;;0.40;0.40;;;18.80;99.90;;;;;;5116303;28;20371;-70
2023/06/20 04:49:31;;;;;;;0.40;0.40;;;18.80;99.90;;;;;;5116387;28;20043;-70
2023/06/20 04:51:57;;;;;;;0.97;0.67;;;18.90;99.90;;;;;;5116596;28;20487;-71
2023/06/20 04:54:24;;;;;;;0.60;0.60;;;18.80;99.90;;;;;;5116378;28;20459;-71
2023/06/20 04:56:50;;;;;;;0.55;0.55;;;18.80;99.90;;;;;;5116259;28;20044;-70
2023/06/20 04:59:16;;;;;;;0.30;0.30;;;18.90;99.90;;;;;;5116238;28;20031;-70
2023/06/20 05:01:42;;;;;;;0.30;0.30;;;18.90;99.90;;;;;;5116084;28;20421;-70
2023/06/20 05:04:08;;;;;;;0.50;0.50;;;19.00;99.90;;;;;;5116747;28;20044;-70
2023/06/20 05:06:33;;;;;;;0.40;0.40;;;19.00;99.90;;;;;;5116237;28;20528;-70
2023/06/20 05:08:59;;;;;;;0.97;0.50;;;19.10;99.90;;;;;;5116017;28;20039;-70
2023/06/20 05:11:26;;;;;;;0.40;0.40;;;19.20;99.90;;;;;;5116118;28;20082;-70
2023/06/20 05:13:51;;;;;;;0.70;0.70;;;19.20;99.90;;;;;;5115682;28;20480;-70
2023/06/20 05:16:17;;;;;;;0.67;0.60;;;19.30;99.90;;;;;;5115838;28;20053;-71
2023/06/20 05:18:44;;;;;;;0.70;0.70;;;19.30;99.90;;;;;;5116077;28;20169;-70
2023/06/20 05:21:09;;;;;;;0.40;0.40;;;19.50;99.90;;;;;;5115837;28;20040;-70
2023/06/20 05:23:35;;;;;;;0.83;0.67;;;19.50;99.90;;;;;;5115664;28;20042;-70
2023/06/20 05:26:01;;;;;;;0.63;0.63;;;19.70;99.90;;;;;;5115785;28;20113;-70
2023/06/20 05:28:27;;;;;;;8.18;0.70;;;19.70;99.90;;;;;;5115338;28;20035;-70
2023/06/20 05:30:52;;;;;;;0.50;0.50;;;19.80;99.90;;;;;;5115525;28;20434;-70
2023/06/20 05:33:18;;;;;;;0.77;0.77;;;19.80;99.90;;;;;;5115600;28;20043;-70
2023/06/20 05:35:46;;;;;;;0.40;0.40;;;19.90;99.90;;;;;;5114669;28;20475;-71
2023/06/20 05:38:12;;;;;;;0.40;0.40;;;19.90;99.90;;;;;;5115427;28;20550;-71
2023/06/20 05:40:38;;;;;;;;;;;20.00;99.90;;;;;;5115541;28;20532;-70
2023/06/20 05:43:04;;;;;;;1.85;0.50;;;20.00;99.90;;;;;;5115256;28;19915;-70
2023/06/20 05:45:29;;;;;;;0.40;0.40;;;20.00;99.90;;;;;;5115259;28;20089;-71
2023/06/20 05:47:55;;;;;;;8.23;1.17;;;20.10;99.90;;;;;;5115672;28;20035;-71
2023/06/20 05:50:21;;;;;;;0.60;0.43;;;20.10;99.90;;;;;;5114971;28;20036;-69
2023/06/20 05:52:46;;;;;;;0.40;0.40;;;20.10;99.90;;;;;;5115384;28;20036;-71
2023/06/20 05:55:12;;;;;;;2.30;1.87;;;20.20;99.90;;;;;;5115392;28;20096;-70
2023/06/20 05:57:37;;;;;;;0.77;0.77;;;20.20;99.90;;;;;;5115196;28;20040;-71
2023/06/20 06:00:12;;;;;;;0.30;0.30;;;20.30;99.90;;;;;;5115058;28;20467;-70
2023/06/20 06:02:39;;;;;;;0.30;0.30;;;20.40;99.90;;;;;;5114995;28;20046;-70
2023/06/20 06:05:05;;;;;;;0.85;0.60;;;20.40;99.90;;;;;;5114621;28;20122;-70
2023/06/20 06:07:31;;;;;;;0.38;0.38;;;20.40;99.90;;;;;;5114817;28;20126;-70
2023/06/20 06:09:56;;;;;;;0.40;0.40;;;20.30;99.90;;;;;;5114772;28;20119;-70
2023/06/20 06:12:22;;;;;;;0.50;0.50;;;20.40;99.90;;;;;;5113658;28;20035;-71
2023/06/20 06:14:47;;;;;;;0.40;0.40;;;20.30;99.90;;;;;;5113482;28;20039;-70
2023/06/20 06:17:13;;;;;;;0.30;0.30;;;20.30;99.90;;;;;;5114780;28;20054;-71
2023/06/20 06:19:40;;;;;;;1.70;1.30;;;20.40;99.90;;;;;;5115012;28;20100;-71
2023/06/20 06:22:06;;;;;;;0.40;0.40;;;20.30;99.90;;;;;;5114553;28;20080;-70
2023/06/20 06:24:31;;;;;;;0.50;0.50;;;20.30;99.90;;;;;;5114620;28;20047;-71
2023/06/20 06:26:57;;;;;;;0.60;0.60;;;20.30;99.90;;;;;;5114720;28;20130;-70
2023/06/20 06:29:25;;;;;;;0.30;0.30;;;20.30;99.90;;;;;;5114541;28;20472;-70
2023/06/20 06:31:51;;;;;;;0.40;0.40;;;20.40;99.90;;;;;;5114059;28;20100;-70
2023/06/20 06:34:16;;;;;;;0.47;0.47;;;20.40;99.90;;;;;;5114728;28;20032;-70
2023/06/20 06:36:44;;;;;;;0.50;0.50;;;20.40;99.90;;;;;;5114517;28;20040;-70
2023/06/20 06:39:12;;;;;;;0.30;0.30;;;20.50;99.90;;;;;;5113209;28;20039;-69
2023/06/20 06:41:38;;;;;;;0.60;0.60;;;20.50;99.90;;;;;;5114378;28;20052;-70
2023/06/20 06:44:04;;;;;;;0.30;0.30;;;20.50;99.90;;;;;;5113971;28;20036;-71
2023/06/20 06:46:29;;;;;;;0.30;0.30;;;20.50;99.90;;;;;;5114166;28;20046;-70
2023/06/20 06:48:55;;;;;;;0.53;0.53;;;20.40;99.90;;;;;;5096349;28;20035;-71
2023/06/20 06:51:21;;;;;;;0.40;0.40;;;20.50;99.90;;;;;;5114380;28;20046;-70
2023/06/20 06:53:47;;;;;;;0.40;0.40;;;20.60;99.90;;;;;;5114299;28;20499;-70
2023/06/20 06:56:12;;;;;;;0.20;0.20;;;20.60;99.90;;;;;;5114397;28;20039;-71
2023/06/20 06:58:38;;;;;;;0.73;0.73;;;20.60;99.90;;;;;;5114123;28;20123;-70
2023/06/20 07:01:03;;;;;;;0.60;0.60;;;20.60;99.90;;;;;;5113570;28;20051;-71
2023/06/20 07:03:29;;;;;;;0.30;0.30;;;20.60;99.90;;;;;;5114011;28;20088;-70
2023/06/20 07:05:54;;;;;;;0.40;0.40;;;20.60;99.90;;;;;;5114035;28;20044;-70
2023/06/20 07:08:20;;;;;;;0.30;0.30;;;20.60;99.90;;;;;;5114148;28;20105;-71
2023/06/20 07:10:47;;;;;;;0.40;0.40;;;20.70;99.90;;;;;;5114086;28;20536;-71
2023/06/20 07:13:13;;;;;;;0.28;0.28;;;20.70;99.90;;;;;;5114062;28;20051;-71
2023/06/20 07:15:38;;;;;;;0.40;0.40;;;20.70;99.90;;;;;;5113940;28;20048;-70
2023/06/20 07:18:04;;;;;;;0.40;0.40;;;20.70;99.90;;;;;;5114369;28;20364;-70
2023/06/20 07:20:29;;;;;;;0.37;0.37;;;20.80;99.90;;;;;;5114407;28;20040;-71
2023/06/20 07:22:55;;;;;;;0.87;0.80;;;20.80;99.90;;;;;;5113766;28;20463;-71
2023/06/20 07:25:20;;;;;;;0.40;0.40;;;20.70;99.90;;;;;;5113892;28;20078;-70
2023/06/20 07:27:46;;;;;;;0.40;0.40;;;20.80;99.90;;;;;;5113914;28;20038;-71
2023/06/20 07:30:12;;;;;;;0.30;0.30;;;20.80;99.90;;;;;;5113857;28;20514;-71
2023/06/20 07:32:37;;;;;;;0.63;0.63;;;20.80;99.90;;;;;;5113503;28;20035;-71
2023/06/20 07:35:03;;;;;;;0.30;0.30;;;20.80;99.90;;;;;;5113867;28;20031;-70
2023/06/20 07:37:29;;;;;;;0.30;0.30;;;20.90;99.90;;;;;;5113709;28;20160;-70
2023/06/20 07:39:54;;;;;;;1.50;1.07;;;20.90;99.90;;;;;;5114037;28;20045;-70
2023/06/20 07:42:20;;;;;;;0.30;0.30;;;21.00;99.90;;;;;;5113701;28;20043;-71
2023/06/20 07:44:45;;;;;;;1.43;0.67;;;21.10;99.90;;;;;;5113703;28;20122;-70
2023/06/20 07:47:13;;;;;;;0.60;0.60;;;21.30;99.90;;;;;;5113748;28;20468;-70
2023/06/20 07:49:38;;;;;;;0.95;0.95;;;21.50;99.90;;;;;;5113662;28;20044;-71
2023/06/20 07:52:04;;;;;;;0.87;0.87;;;21.70;99.90;;;;;;5113730;28;20324;-71
2023/06/20 07:54:31;;;;;;;0.60;0.60;;;21.90;99.90;;;;;;5113642;28;20046;-70
2023/06/20 07:56:57;;;;;;;0.65;0.65;;;21.90;99.90;;;;;;5113387;28;20112;-70
2023/06/20 07:59:23;;;;;;;0.43;0.43;;;22.00;99.90;;;;;;5115437;28;20463;-70
2023/06/20 08:01:49;;;;;;;0.77;0.60;;;22.20;99.90;;;;;;5117724;28;20330;-70
2023/06/20 08:04:14;;;;;;;1.30;0.73;;;22.30;99.90;;;;;;5116110;28;20122;-71
2023/06/20 08:06:40;;;;;;;0.40;0.40;;;22.50;99.90;;;;;;5117348;28;20107;-71
2023/06/20 08:09:05;;;;;;;0.40;0.40;;;22.70;99.90;;;;;;5117044;28;20046;-70
2023/06/20 08:11:33;;;;;;;0.50;0.50;;;22.80;99.90;;;;;;5117186;28;20100;-70
2023/06/20 08:13:58;;;;;;;0.40;0.40;;;23.00;99.90;;;;;;5117084;28;20051;-70
2023/06/20 08:16:24;;;;;;;0.63;0.50;;;23.20;99.90;;;;;;5117056;28;20043;-71
2023/06/20 08:18:50;;;;;;;0.40;0.40;;;23.20;99.90;;;;;;5116025;28;20043;-71
2023/06/20 08:21:15;;;;;;;0.50;0.50;;;23.40;99.90;;;;;;5116978;28;20051;-71
2023/06/20 08:23:41;;;;;;;0.70;0.70;;;23.50;99.90;;;;;;5116701;28;20122;-71
2023/06/20 08:26:06;;;;;;;0.73;0.57;;;23.50;99.90;;;;;;5115751;28;20127;-70
2023/06/20 08:28:32;;;;;;;3.67;3.40;;;23.60;99.90;;;;;;5115963;28;20071;-71
2023/06/20 08:30:57;;;;;;;0.30;0.30;;;23.60;99.90;;;;;;5116782;28;20483;-71
2023/06/20 08:33:23;;;;;;;0.50;0.47;;;23.70;99.90;;;;;;5116954;28;20035;-71
2023/06/20 08:35:50;;;;;;;0.47;0.47;;;23.60;99.90;;;;;;5116746;28;20159;-71
2023/06/20 08:38:16;;;;;;;0.68;0.60;;;23.70;99.90;;;;;;5116687;28;20060;-71
2023/06/20 08:40:42;;;;;;;0.60;0.60;;;23.70;99.90;;;;;;5116797;28;20039;-71
2023/06/20 08:43:14;;;;;;;0.50;0.50;;;23.70;99.90;;;;;;5116142;28;20038;-69
2023/06/20 08:45:40;;;;;;;0.43;0.43;;;23.70;99.90;;;;;;5116282;28;20480;-70
2023/06/20 08:48:05;;;;;;;0.53;0.53;;;23.80;99.90;;;;;;5115460;28;20036;-71
2023/06/20 08:50:32;;;;;;;0.47;0.47;;;23.90;99.90;;;;;;5116422;28;20044;-70
2023/06/20 08:53:01;;;;;;;0.40;0.40;;;23.80;99.90;;;;;;5116225;28;20054;-70
2023/06/20 08:55:28;;;;;;;0.95;0.88;;;24.00;99.90;;;;;;5116325;28;20039;-71
2023/06/20 08:57:55;;;;;;;0.30;0.30;;;24.20;99.90;;;;;;5116268;28;20032;-70
2023/06/20 09:00:21;;;;;;;0.40;0.40;;;24.30;99.90;;;;;;5116653;28;20044;-71
2023/06/20 09:02:48;;;;;;;0.52;0.50;;;24.60;99.90;;;;;;5116292;28;20269;-71
2023/06/20 09:05:14;;;;;;;0.47;0.47;;;24.90;99.90;;;;;;5116035;28;20059;-71
2023/06/20 09:07:41;;;;;;;0.40;0.40;;;25.10;99.90;;;;;;5116087;28;20345;-71
2023/06/20 09:10:08;;;;;;;1.55;0.93;;;25.30;99.90;;;;;;5114677;28;20044;-70
2023/06/20 09:13:03;;;;;;;0.73;0.32;;;25.50;99.90;;;;;;5115881;28;20038;-71
2023/06/20 09:15:29;;;;;;;0.50;0.50;;;25.90;99.90;;;;;;5102785;28;20043;-70
2023/06/20 09:17:59;;;;;;;0.30;0.30;;;26.00;99.90;;;;;;5115827;28;20036;-71
2023/06/20 09:20:27;;;;;;;0.30;0.30;;;26.20;99.90;;;;;;5115758;28;20114;-71
2023/06/20 09:22:54;;;;;;;0.30;0.30;;;26.20;99.90;;;;;;5115644;28;20371;-71
2023/06/20 09:25:25;;;;;;;0.40;0.40;;;26.30;99.90;;;;;;5115725;28;20039;-71
2023/06/20 09:27:51;;;;;;;0.45;0.45;;;26.40;99.90;;;;;;5115602;28;20055;-71
2023/06/20 09:30:17;;;;;;;0.65;0.60;;;26.60;99.90;;;;;;5115578;28;20032;-71
2023/06/20 09:32:43;;;;;;;0.43;0.40;;;26.80;99.90;;;;;;5115711;28;20042;-71
2023/06/20 09:35:10;;;;;;;0.47;0.47;;;26.90;99.90;;;;;;5115705;28;20122;-70
2023/06/20 09:37:36;;;;;;;1.85;0.65;;;27.00;99.90;;;;;;5115353;28;20039;-71
2023/06/20 09:40:08;;;;;;;0.43;0.43;;;27.00;99.90;;;;;;5114719;28;20548;-71
2023/06/20 09:42:34;;;;;;;0.65;0.65;;;27.10;99.90;;;;;;5115388;28;20045;-71
2023/06/20 09:45:00;;;;;;;0.30;0.30;;;27.20;99.90;;;;;;5115389;28;20039;-71
2023/06/20 09:47:25;;;;;;;0.30;0.30;;;27.20;99.90;;;;;;5114148;28;20043;-71
2023/06/20 09:49:57;;;;;;;0.53;0.53;;;27.40;99.90;;;;;;5115213;28;20062;-71
2023/06/20 09:52:26;;;;;;;0.50;0.50;;;27.60;99.90;;;;;;5114863;28;20035;-71
2023/06/20 09:55:06;;;;;;;0.30;0.30;;;27.60;99.90;;;;;;5115164;28;20046;-70
2023/06/20 09:57:38;;;;;;;0.77;0.77;;;27.60;99.90;;;;;;5115454;28;20145;-71
2023/06/20 10:00:10;;;;;;;0.30;0.30;;;27.80;99.90;;;;;;5115120;28;20051;-71
2023/06/20 10:02:38;;;;;;;0.30;0.30;;;27.90;99.90;;;;;;5115069;28;20031;-71
2023/06/20 10:05:04;;;;;;;0.43;0.43;;;28.00;99.90;;;;;;5113709;28;20051;-71
2023/06/20 10:07:30;;;;;;;0.28;0.28;;;28.10;99.90;;;;;;5114999;28;20039;-72
2023/06/20 10:09:57;;;;;;;0.30;0.30;;;28.30;99.90;;;;;;5115183;28;20028;-71
2023/06/20 10:12:23;;;;;;;0.25;0.25;;;28.20;99.90;;;;;;5113855;28;20032;-71
2023/06/20 10:14:49;;;;;;;0.43;0.43;;;27.90;99.90;;;;;;5113997;28;20093;-71
2023/06/20 10:17:15;;;;;;;;;;;27.80;99.90;;;;;;5114830;28;20079;-71
2023/06/20 10:19:51;;;;;;;0.50;0.50;;;27.60;99.90;;;;;;5114681;28;19962;-71
2023/06/20 10:22:38;;;;;;;0.30;0.30;;;27.60;99.90;;;;;;5114148;28;20122;-71
2023/06/20 10:25:14;;;;;;;0.55;0.55;;;27.40;99.90;;;;;;5114909;28;20043;-71
2023/06/20 10:27:44;;;;;;;0.30;0.30;;;27.40;99.90;;;;;;5114609;28;20039;-71
2023/06/20 10:30:12;;;;;;;0.30;0.30;;;27.40;99.90;;;;;;5114475;28;20699;-71
2023/06/20 10:33:10;;;;;;;0.30;0.30;;;27.40;99.90;;;;;;5114451;28;20076;-70
2023/06/20 10:35:46;;;;;;;0.50;0.50;;;27.50;99.90;;;;;;5114479;28;20035;-71
2023/06/20 10:38:12;;;;;;;0.40;0.40;;;27.60;99.90;;;;;;5113388;28;20774;-71
2023/06/20 10:40:38;;;;;;;0.77;0.77;;;27.60;99.90;;;;;;5114706;28;20048;-71
2023/06/20 10:43:08;;;;;;;0.30;0.30;;;27.80;99.90;;;;;;5114306;28;20039;-71
2023/06/20 10:45:34;;;;;;;0.40;0.40;;;27.80;99.90;;;;;;5114320;28;20044;-71
2023/06/20 10:48:03;;;;;;;;;;;27.80;99.90;;;;;;5114731;28;20412;-72
2023/06/20 10:50:30;;;;;;;0.50;0.50;;;27.70;99.90;;;;;;5114333;28;19915;-71
2023/06/20 10:52:59;;;;;;;0.40;0.40;;;27.70;99.90;;;;;;5114180;28;20046;-71
2023/06/20 10:55:27;;;;;;;1.00;0.55;;;27.80;99.90;;;;;;5114013;28;20540;-71
2023/06/20 10:57:53;;;;;;;0.40;0.40;;;28.00;99.90;;;;;;5114291;28;20039;-71
2023/06/20 11:00:21;;;;;;;0.50;0.50;;;28.20;99.90;;;;;;5114195;28;20039;-71
2023/06/20 11:02:53;;;;;;;0.40;0.40;;;28.40;99.90;;;;;;5114092;28;20086;-70
2023/06/20 11:05:22;;;;;;;0.40;0.40;;;28.50;99.90;;;;;;5112765;28;20054;-71
2023/06/20 11:07:54;;;;;;;0.30;0.30;;;28.70;99.90;;;;;;5114081;28;20043;-71
2023/06/20 11:10:21;;;;;;;0.30;0.30;;;28.70;99.90;;;;;;5114494;28;20039;-71
2023/06/20 11:12:47;;;;;;;0.50;0.50;;;28.80;99.90;;;;;;5114062;28;20043;-71
2023/06/20 11:15:24;;;;;;;0.30;0.30;;;29.00;99.90;;;;;;5114075;28;20078;-71
2023/06/20 11:17:51;;;;;;;0.52;0.52;;;28.90;99.90;;;;;;5114045;28;20032;-71
2023/06/20 11:20:17;;;;;;;0.60;0.60;;;29.20;99.90;;;;;;5113716;28;20081;-71
2023/06/20 11:22:45;;;;;;;;;;;29.40;99.90;;;;;;5114284;28;20081;-71
2023/06/20 11:25:10;;;;;;;0.20;0.20;;;29.50;99.90;;;;;;5114272;28;20052;-71
2023/06/20 11:27:36;;;;;;;0.40;0.40;;;29.70;99.90;;;;;;5113979;28;20487;-71
2023/06/20 11:30:02;;;;;;;0.47;0.47;;;29.90;99.90;;;;;;5113624;28;20032;-71
2023/06/20 11:32:28;;;;;;;0.73;0.73;;;30.10;99.90;;;;;;5113880;28;20621;-71
2023/06/20 11:34:56;;;;;;;0.30;0.30;;;30.20;99.90;;;;;;5116436;28;20036;-71
2023/06/20 11:37:22;;;;;;;0.40;0.40;;;30.40;99.90;;;;;;5117851;28;20127;-71
2023/06/20 11:39:48;;;;;;;;;;;30.40;99.80;;;;;;5118586;28;20474;-71
2023/06/20 11:42:17;;;;;;;0.30;0.30;;;30.30;99.90;;;;;;5117701;28;19970;-71
2023/06/20 11:44:42;;;;;;;0.30;0.30;;;30.30;99.90;;;;;;5117706;28;20519;-71
2023/06/20 11:47:09;;;;;;;0.82;0.82;;;30.40;99.90;;;;;;5117635;28;20111;-71
2023/06/20 11:49:38;;;;;;;0.50;0.50;;;30.30;99.40;;;;;;5117169;28;20069;-72
2023/06/20 11:52:05;;;;;;;0.52;0.52;;;30.30;99.70;;;;;;5117486;27;20494;-72
2023/06/20 11:54:46;;;;;;;0.20;0.20;;;30.50;99.70;;;;;;5117430;28;20468;-71
2023/06/20 11:57:24;;;;;;;0.30;0.30;;;30.60;99.80;;;;;;5117656;28;20039;-71
2023/06/20 11:59:49;;;;;;;0.68;0.60;;;30.60;99.30;;;;;;5117480;28;20043;-71
2023/06/20 12:02:15;;;;;;;0.43;0.43;;;30.50;98.70;;;;;;5116148;28;20533;-71
2023/06/20 12:04:43;;;;;;;0.30;0.30;;;30.50;99.60;;;;;;5117191;28;20047;-71
2023/06/20 12:07:09;;;;;;;0.40;0.40;;;30.40;99.00;;;;;;5117198;28;20048;-71
2023/06/20 12:09:40;;;;;;;0.30;0.30;;;30.20;99.40;;;;;;5116929;28;20119;-72
2023/06/20 12:12:07;;;;;;;0.55;0.52;;;30.10;99.60;;;;;;5117225;28;20047;-71
2023/06/20 12:14:32;;;;;;;0.90;0.65;;;30.20;99.50;;;;;;5117069;28;20036;-71
2023/06/20 12:16:58;;;;;;;0.30;0.30;;;30.10;99.00;;;;;;5117108;28;20039;-71
2023/06/20 12:19:24;;;;;;;0.30;0.30;;;30.00;99.10;;;;;;5117180;28;20034;-71
2023/06/20 12:21:49;;;;;;;0.30;0.30;;;29.70;99.20;;;;;;5117875;28;20784;-71
2023/06/20 12:24:15;;;;;;;0.45;0.45;;;29.50;99.80;;;;;;5116889;28;20044;-71
2023/06/20 12:26:43;;;;;;;0.30;0.30;;;29.50;99.90;;;;;;5116905;28;20122;-71
2023/06/20 12:29:09;;;;;;;0.30;0.30;;;29.30;99.90;;;;;;5116786;28;20039;-72
2023/06/20 12:31:34;;;;;;;0.30;0.30;;;29.20;99.90;;;;;;5116777;28;20139;-71
2023/06/20 12:34:00;;;;;;;0.80;0.80;;;29.30;99.90;;;;;;5115629;28;20280;-71
2023/06/20 12:36:26;;;;;;;1.10;0.65;;;29.40;99.90;;;;;;5117088;28;20471;-71
2023/06/20 12:38:51;;;;;;;0.55;0.55;;;29.30;99.90;;;;;;5116702;28;20127;-71
2023/06/20 12:41:17;;;;;;;0.55;0.55;;;29.20;99.90;;;;;;5116636;28;20048;-72
2023/06/20 12:43:43;;;;;;;0.52;0.50;;;29.30;99.90;;;;;;5116476;28;20360;-71
2023/06/20 12:46:10;;;;;;;0.30;0.30;;;29.70;99.90;;;;;;5116224;28;20027;-71
2023/06/20 12:48:35;;;;;;;0.30;0.30;;;29.90;99.90;;;;;;5116463;28;20050;-71
2023/06/20 12:51:01;;;;;;;0.40;0.40;;;30.10;99.90;;;;;;5116487;28;20379;-71